createdAt,value
2022-12-15T00:00:00.148Z,16.67
2022-12-15T00:02:20.348Z,20.33
2022-12-15T00:04:40.753Z,14.67
2022-12-15T00:07:01.214Z,15.73
2022-12-15T00:09:25.181Z,15.33
2022-12-15T00:11:51.282Z,16.43
2022-12-15T00:14:11.472Z,24.77
2022-12-15T00:16:31.749Z,22.60
2022-12-15T00:18:52.437Z,21.40
2022-12-15T00:21:16.635Z,15.67
2022-12-15T00:23:36.885Z,18.57
2022-12-15T00:25:57.196Z,17.47
2022-12-15T00:28:17.415Z,14.47
2022-12-15T00:30:37.655Z,17.43
2022-12-15T00:32:57.966Z,16.80
2022-12-15T00:35:18.392Z,17.00
2022-12-15T00:37:38.670Z,19.37
2022-12-15T00:39:40.519Z,17.37
2022-12-15T00:41:42.368Z,17.27
2022-12-15T00:43:44.523Z,16.23
2022-12-15T00:46:05.209Z,17.70
2022-12-15T00:48:07.307Z,17.53
2022-12-15T00:50:27.688Z,17.20
2022-12-15T00:52:48.009Z,15.60
2022-12-15T00:55:08.275Z,15.60
2022-12-15T00:57:28.624Z,15.87
2022-12-15T00:59:48.916Z,16.50
2022-12-15T01:02:09.298Z,17.80
2022-12-15T01:04:29.661Z,20.10
2022-12-15T01:06:49.937Z,19.17
2022-12-15T01:09:10.150Z,15.33
2022-12-15T01:11:30.475Z,23.67
2022-12-15T01:13:50.798Z,16.30
2022-12-15T01:16:11.572Z,15.80
2022-12-15T01:18:32.213Z,15.67
2022-12-15T01:20:34.747Z,15.50
2022-12-15T01:22:37.549Z,14.73
2022-12-15T01:24:39.474Z,15.50
2022-12-15T01:26:42.439Z,14.43
2022-12-15T01:28:44.322Z,14.57
2022-12-15T01:30:46.256Z,17.93
2022-12-15T01:32:47.972Z,17.00
2022-12-15T01:34:49.938Z,14.97
2022-12-15T01:36:51.677Z,16.73
2022-12-15T01:38:54.495Z,13.83
2022-12-15T01:41:00.568Z,15.53
2022-12-15T01:43:02.297Z,15.87
2022-12-15T01:45:38.017Z,16.03
2022-12-15T01:47:39.806Z,13.53
2022-12-15T01:49:43.015Z,13.57
2022-12-15T01:51:48.540Z,15.17
2022-12-15T01:53:56.133Z,13.70
2022-12-15T01:55:58.004Z,13.93
2022-12-15T01:58:06.908Z,13.43
2022-12-15T02:00:09.225Z,14.57
2022-12-15T02:02:12.744Z,17.07
2022-12-15T02:04:15.246Z,14.73
2022-12-15T02:06:19.227Z,14.40
2022-12-15T02:08:21.275Z,14.13
2022-12-15T02:10:26.009Z,15.33
2022-12-15T02:13:01.331Z,13.97
2022-12-15T02:15:09.555Z,13.10
2022-12-15T02:17:27.785Z,13.93
2022-12-15T02:19:51.168Z,13.77
2022-12-15T02:22:10.043Z,15.97
2022-12-15T02:24:57.785Z,14.03
2022-12-15T02:27:27.233Z,15.07
2022-12-15T02:30:17.264Z,15.13
2022-12-15T02:32:26.960Z,16.03
2022-12-15T02:34:37.866Z,17.10
2022-12-15T02:36:44.060Z,13.03
2022-12-15T02:38:45.788Z,15.63
2022-12-15T02:40:47.504Z,15.83
2022-12-15T02:42:52.363Z,13.70
2022-12-15T02:44:58.522Z,15.40
2022-12-15T02:47:12.153Z,17.23
2022-12-15T02:49:26.969Z,13.40
2022-12-15T02:52:01.101Z,14.20
2022-12-15T02:54:05.430Z,14.07
2022-12-15T02:56:18.364Z,16.23
2022-12-15T02:58:26.113Z,14.10
2022-12-15T03:00:28.696Z,15.83
2022-12-15T03:02:32.837Z,15.87
2022-12-15T03:04:35.132Z,14.20
2022-12-15T03:06:37.103Z,15.30
2022-12-15T03:08:38.879Z,15.23
2022-12-15T03:10:40.675Z,20.00
2022-12-15T03:12:42.465Z,17.83
2022-12-15T03:14:44.410Z,14.33
2022-12-15T03:16:46.223Z,21.53
2022-12-15T03:18:48.007Z,14.80
2022-12-15T03:20:49.793Z,16.23
2022-12-15T03:22:51.705Z,16.23
2022-12-15T03:24:53.440Z,15.83
2022-12-15T03:26:55.265Z,15.63
2022-12-15T03:28:56.919Z,18.13
2022-12-15T03:30:58.732Z,16.17
2022-12-15T03:33:00.486Z,18.60
2022-12-15T03:35:02.386Z,16.80
2022-12-15T03:37:04.095Z,17.10
2022-12-15T03:39:06.183Z,15.53
2022-12-15T03:41:08.053Z,13.73
2022-12-15T03:43:09.785Z,13.00
2022-12-15T03:45:11.525Z,16.30
2022-12-15T03:47:13.216Z,15.63
2022-12-15T03:49:14.881Z,14.43
2022-12-15T03:51:16.646Z,14.17
2022-12-15T03:53:18.355Z,15.73
2022-12-15T03:55:21.381Z,14.93
2022-12-15T03:57:23.423Z,13.70
2022-12-15T03:59:25.196Z,16.97
2022-12-15T04:01:30.276Z,17.63
2022-12-15T04:03:32.464Z,12.97
2022-12-15T04:05:35.426Z,12.90
2022-12-15T04:07:37.098Z,20.53
2022-12-15T04:09:38.866Z,12.73
2022-12-15T04:11:40.685Z,14.83
2022-12-15T04:13:42.449Z,13.10
2022-12-15T04:15:44.170Z,14.97
2022-12-15T04:17:45.932Z,13.93
2022-12-15T04:20:06.195Z,12.97
2022-12-15T04:22:08.140Z,13.57
2022-12-15T04:24:28.617Z,13.73
2022-12-15T04:26:49.113Z,14.57
2022-12-15T04:29:09.893Z,13.03
2022-12-15T04:31:32.098Z,13.53
2022-12-15T04:33:53.134Z,12.93
2022-12-15T04:36:13.419Z,12.57
2022-12-15T04:38:33.622Z,13.97
2022-12-15T04:40:53.753Z,15.23
2022-12-15T04:43:14.041Z,15.03
2022-12-15T04:45:36.399Z,14.23
2022-12-15T04:47:56.649Z,18.83
2022-12-15T04:50:16.907Z,11.17
2022-12-15T04:52:37.165Z,13.83
2022-12-15T04:54:57.559Z,12.33
2022-12-15T04:57:17.771Z,14.60
2022-12-15T04:59:38.156Z,13.53
2022-12-15T05:01:58.898Z,15.57
2022-12-15T05:04:19.420Z,14.60
2022-12-15T05:06:39.925Z,14.40
2022-12-15T05:09:00.118Z,17.33
2022-12-15T05:11:20.358Z,14.77
2022-12-15T05:13:40.663Z,15.83
2022-12-15T05:16:01.146Z,14.63
2022-12-15T05:18:21.479Z,15.90
2022-12-15T05:20:42.007Z,12.03
2022-12-15T05:23:02.324Z,14.80
2022-12-15T05:25:23.641Z,14.57
2022-12-15T05:27:44.021Z,16.10
2022-12-15T05:30:04.431Z,15.77
2022-12-15T05:32:07.146Z,14.97
2022-12-15T05:34:08.859Z,15.30
2022-12-15T05:36:10.683Z,13.70
2022-12-15T05:38:12.410Z,14.77
2022-12-15T05:40:14.184Z,18.90
2022-12-15T05:42:15.891Z,17.00
2022-12-15T05:44:17.859Z,15.53
2022-12-15T05:46:19.916Z,16.23
2022-12-15T05:48:21.687Z,15.10
2022-12-15T05:50:23.729Z,13.80
2022-12-15T05:52:25.687Z,15.27
2022-12-15T05:54:27.367Z,16.07
2022-12-15T05:56:29.225Z,16.97
2022-12-15T05:58:31.046Z,14.27
2022-12-15T06:00:32.776Z,14.50
2022-12-15T06:02:34.777Z,15.17
2022-12-15T06:04:36.732Z,13.57
2022-12-15T06:06:39.325Z,12.00
2022-12-15T06:08:42.397Z,16.03
2022-12-15T06:10:44.334Z,15.47
2022-12-15T06:12:46.116Z,15.53
2022-12-15T06:14:48.031Z,21.10
2022-12-15T06:16:51.888Z,15.03
2022-12-15T06:18:57.215Z,25.47
2022-12-15T06:21:00.473Z,16.33
2022-12-15T06:23:02.193Z,16.73
2022-12-15T06:25:04.303Z,18.73
2022-12-15T06:27:06.057Z,13.97
2022-12-15T06:29:09.510Z,16.47
2022-12-15T06:31:15.078Z,15.93
2022-12-15T06:33:17.039Z,28.43
2022-12-15T06:35:19.118Z,15.40
2022-12-15T06:37:21.016Z,17.93
2022-12-15T06:39:22.838Z,13.80
2022-12-15T06:41:24.648Z,21.37
2022-12-15T06:43:27.775Z,16.40
2022-12-15T06:45:29.783Z,16.83
2022-12-15T06:47:31.594Z,20.00
2022-12-15T06:49:33.813Z,15.80
2022-12-15T06:51:35.552Z,15.23
2022-12-15T06:53:38.792Z,16.47
2022-12-15T06:55:41.180Z,15.73
2022-12-15T06:57:42.930Z,14.73
2022-12-15T06:59:44.813Z,17.13
2022-12-15T07:01:46.797Z,13.97
2022-12-15T07:03:49.111Z,26.63
2022-12-15T07:06:02.659Z,15.17
2022-12-15T07:08:04.478Z,14.30
2022-12-15T07:10:06.764Z,13.17
2022-12-15T07:12:09.813Z,14.67
2022-12-15T07:14:11.637Z,16.33
2022-12-15T07:16:13.821Z,17.10
2022-12-15T07:18:16.326Z,15.63
2022-12-15T07:20:18.115Z,12.20
2022-12-15T07:22:21.025Z,15.53
2022-12-15T07:24:22.852Z,13.83
2022-12-15T07:26:24.784Z,15.87
2022-12-15T07:28:26.592Z,15.90
2022-12-15T07:30:31.341Z,15.67
2022-12-15T07:32:36.123Z,17.70
2022-12-15T07:34:38.200Z,13.47
2022-12-15T07:36:39.944Z,12.13
2022-12-15T07:38:41.703Z,16.70
2022-12-15T07:40:43.498Z,16.10
2022-12-15T07:42:45.248Z,15.23
2022-12-15T07:44:47.171Z,14.50
2022-12-15T07:46:52.585Z,17.07
2022-12-15T07:48:54.343Z,16.67
2022-12-15T07:51:08.430Z,18.33
2022-12-15T07:53:11.638Z,20.37
2022-12-15T07:55:13.769Z,17.70
2022-12-15T07:57:16.375Z,14.27
2022-12-15T07:59:18.340Z,15.73
2022-12-15T08:01:20.475Z,14.70
2022-12-15T08:03:22.466Z,13.83
2022-12-15T08:05:24.380Z,14.83
2022-12-15T08:07:26.167Z,12.90
2022-12-15T08:09:28.024Z,13.23
2022-12-15T08:11:34.559Z,13.87
2022-12-15T08:15:59.281Z,13.47
2022-12-15T08:18:01.007Z,14.90
2022-12-15T08:20:09.651Z,16.50
2022-12-15T08:22:12.278Z,18.13
2022-12-15T08:24:14.741Z,13.93
2022-12-15T08:26:18.231Z,14.47
2022-12-15T08:28:20.099Z,19.97
2022-12-15T08:30:22.456Z,15.07
2022-12-15T08:32:24.732Z,13.33
2022-12-15T08:34:26.734Z,19.33
2022-12-15T08:36:29.426Z,15.93
2022-12-15T08:38:32.420Z,16.27
2022-12-15T08:40:34.246Z,16.23
2022-12-15T08:42:36.860Z,14.57
2022-12-15T08:44:38.673Z,19.50
2022-12-15T08:46:40.359Z,17.77
2022-12-15T08:48:42.090Z,18.10
2022-12-15T08:50:45.902Z,18.93
2022-12-15T08:53:13.781Z,18.37
2022-12-15T08:55:11.914Z,16.40
2022-12-15T08:57:13.960Z,24.13
2022-12-15T08:59:15.943Z,16.07
2022-12-15T09:01:23.788Z,20.33
2022-12-15T09:03:27.547Z,16.87
2022-12-15T09:05:29.417Z,20.93
2022-12-15T09:07:31.165Z,17.40
2022-12-15T09:09:32.916Z,20.00
2022-12-15T09:11:35.014Z,19.77
2022-12-15T09:13:36.879Z,18.93
2022-12-15T09:16:08.178Z,20.83
2022-12-15T09:18:03.706Z,16.60
2022-12-15T09:20:06.062Z,20.10
2022-12-15T09:22:08.136Z,20.20
2022-12-15T09:24:16.468Z,23.97
2022-12-15T09:26:24.743Z,15.00
2022-12-15T09:28:26.707Z,14.73
2022-12-15T09:30:28.801Z,20.20
2022-12-15T09:32:30.822Z,18.17
2022-12-15T09:34:33.700Z,15.80
2022-12-15T09:36:35.642Z,16.63
2022-12-15T09:38:41.344Z,25.67
2022-12-15T09:40:43.719Z,15.73
2022-12-15T09:42:59.719Z,21.60
2022-12-15T09:45:20.871Z,18.13
2022-12-15T09:47:35.040Z,17.27
2022-12-15T09:49:53.692Z,17.07
2022-12-15T09:52:20.882Z,19.97
2022-12-15T09:54:24.202Z,17.13
2022-12-15T09:56:33.458Z,15.63
2022-12-15T09:58:50.755Z,21.03
2022-12-15T10:01:24.486Z,15.63
2022-12-15T10:03:56.726Z,17.53
2022-12-15T10:08:46.287Z,17.77
2022-12-15T10:10:54.487Z,14.73
2022-12-15T10:15:25.899Z,14.03
2022-12-15T10:17:39.884Z,16.13
2022-12-15T10:20:08.128Z,11.93
2022-12-15T10:22:37.060Z,11.10
2022-12-15T10:25:08.414Z,12.13
2022-12-15T10:27:22.858Z,12.38
2022-12-15T10:29:37.308Z,12.32
2022-12-15T10:31:58.191Z,14.32
2022-12-15T10:34:15.719Z,14.85
2022-12-15T10:36:17.669Z,11.40
2022-12-15T10:38:26.359Z,12.02
2022-12-15T10:40:51.102Z,11.43
2022-12-15T10:42:53.191Z,11.18
2022-12-15T10:44:58.273Z,12.18
2022-12-15T10:47:10.212Z,11.65
2022-12-15T10:49:12.023Z,11.93
2022-12-15T10:51:13.873Z,11.20
2022-12-15T10:53:43.192Z,12.38
2022-12-15T10:55:49.994Z,12.73
2022-12-15T10:58:00.242Z,10.18
2022-12-15T11:00:14.431Z,11.68
2022-12-15T11:02:24.740Z,12.90
2022-12-15T11:04:32.161Z,10.27
2022-12-15T11:06:34.700Z,14.25
2022-12-15T11:08:36.877Z,10.57
2022-12-15T11:11:11.790Z,14.52
2022-12-15T11:13:14.925Z,13.90
2022-12-15T11:15:22.845Z,14.07
2022-12-15T11:17:24.567Z,11.55
2022-12-15T11:19:47.854Z,14.93
2022-12-15T11:21:54.047Z,12.05
2022-12-15T11:24:01.944Z,11.82
2022-12-15T11:26:24.302Z,16.30
2022-12-15T11:28:34.952Z,16.73
2022-12-15T11:30:44.122Z,13.50
2022-12-15T11:32:58.435Z,13.18
2022-12-15T11:35:00.654Z,13.02
2022-12-15T11:37:06.678Z,12.88
2022-12-15T11:39:17.286Z,11.35
2022-12-15T11:41:25.319Z,15.43
2022-12-15T11:43:45.309Z,11.80
2022-12-15T11:46:32.932Z,13.25
2022-12-15T11:48:43.245Z,14.07
2022-12-15T11:51:01.256Z,12.97
2022-12-15T11:53:24.804Z,13.60
2022-12-15T11:55:37.531Z,14.68
2022-12-15T11:58:07.922Z,12.13
2022-12-15T12:00:13.400Z,12.18
2022-12-15T12:02:30.830Z,11.77
2022-12-15T12:04:44.782Z,11.77
2022-12-15T12:07:03.956Z,13.05
2022-12-15T12:09:18.281Z,12.50
2022-12-15T12:11:43.811Z,13.07
2022-12-15T12:14:06.699Z,13.60
2022-12-15T12:16:38.929Z,12.80
2022-12-15T12:18:50.401Z,15.68
2022-12-15T12:21:00.405Z,12.85
2022-12-15T12:23:02.580Z,12.65
2022-12-15T12:25:15.399Z,12.25
2022-12-15T12:27:29.416Z,13.55
2022-12-15T12:29:38.769Z,13.57
2022-12-15T12:32:02.004Z,18.45
2022-12-15T12:34:23.275Z,13.50
2022-12-15T12:36:25.093Z,15.40
2022-12-15T12:38:31.690Z,16.20
2022-12-15T12:40:55.296Z,14.68
2022-12-15T12:42:58.543Z,15.50
2022-12-15T12:45:02.027Z,12.68
2022-12-15T12:47:10.861Z,11.63
2022-12-15T12:49:27.290Z,12.82
2022-12-15T12:51:42.154Z,13.05
2022-12-15T12:53:44.210Z,14.65
2022-12-15T12:55:47.077Z,12.77
2022-12-15T13:00:20.353Z,14.02
2022-12-15T13:02:22.236Z,13.15
2022-12-15T13:04:30.399Z,12.98
2022-12-15T13:06:35.628Z,14.65
2022-12-15T13:08:52.458Z,13.50
2022-12-15T13:10:56.312Z,15.60
2022-12-15T13:13:00.114Z,13.50
2022-12-15T13:15:12.278Z,13.75
2022-12-15T13:17:27.255Z,13.20
2022-12-15T13:20:01.526Z,19.40
2022-12-15T13:22:03.600Z,16.33
2022-12-15T13:24:05.475Z,13.53
2022-12-15T13:26:07.308Z,13.15
2022-12-15T13:28:40.298Z,15.47
2022-12-15T13:31:27.836Z,15.17
2022-12-15T13:33:30.394Z,13.67
2022-12-15T13:35:34.735Z,21.77
2022-12-15T13:37:59.888Z,15.80
2022-12-15T13:40:02.025Z,19.97
2022-12-15T13:44:40.269Z,18.57
2022-12-15T13:46:45.543Z,20.67
2022-12-15T13:48:53.527Z,18.63
2022-12-15T13:51:03.921Z,15.27
2022-12-15T13:53:30.459Z,15.67
2022-12-15T13:55:38.972Z,18.07
2022-12-15T13:57:49.830Z,15.27
2022-12-15T14:00:18.759Z,17.93
2022-12-15T14:02:46.682Z,15.50
2022-12-15T14:05:17.570Z,16.67
2022-12-15T14:07:19.562Z,17.37
2022-12-15T14:09:41.813Z,16.93
2022-12-15T14:11:54.003Z,26.93
2022-12-15T14:14:00.449Z,14.30
2022-12-15T14:16:28.748Z,20.33
2022-12-15T14:18:36.368Z,15.10
2022-12-15T14:20:41.570Z,19.40
2022-12-15T14:22:43.795Z,14.30
2022-12-15T14:24:46.844Z,17.30
2022-12-15T14:26:51.078Z,21.57
2022-12-15T14:29:06.908Z,19.70
2022-12-15T14:31:17.895Z,17.13
2022-12-15T14:33:19.754Z,17.17
2022-12-15T14:35:37.170Z,14.73
2022-12-15T14:37:38.977Z,16.93
2022-12-15T14:39:46.841Z,16.23
2022-12-15T14:41:52.755Z,18.73
2022-12-15T14:44:36.925Z,15.87
2022-12-15T14:46:25.868Z,22.80
2022-12-15T14:48:53.653Z,17.00
2022-12-15T14:51:00.150Z,16.20
2022-12-15T14:53:15.449Z,14.67
2022-12-15T14:55:28.076Z,22.17
2022-12-15T14:57:45.278Z,19.73
2022-12-15T14:59:54.687Z,20.37
2022-12-15T15:02:30.068Z,14.07
2022-12-15T15:03:10.853Z,12.73
2022-12-15T15:03:12.025Z,18.97
2022-12-15T15:04:33.754Z,22.63
2022-12-15T15:06:39.562Z,21.13
2022-12-15T15:08:52.787Z,14.37
2022-12-15T15:10:57.311Z,17.63
2022-12-15T15:12:59.376Z,19.83
2022-12-15T15:15:04.165Z,21.87
2022-12-15T15:17:06.033Z,24.80
2022-12-15T15:19:07.874Z,20.83
2022-12-15T15:21:17.993Z,18.00
2022-12-15T15:23:19.945Z,18.53
2022-12-15T15:25:39.259Z,18.27
2022-12-15T15:27:44.947Z,19.17
2022-12-15T15:29:46.765Z,30.57
2022-12-15T15:31:52.981Z,21.90
2022-12-15T15:33:59.202Z,31.20
2022-12-15T15:36:02.481Z,26.87
2022-12-15T15:38:12.287Z,20.43
2022-12-15T15:40:16.158Z,18.00
2022-12-15T15:42:17.948Z,19.63
2022-12-15T15:44:19.608Z,18.23
2022-12-15T15:46:23.558Z,17.43
2022-12-15T15:48:29.202Z,25.20
2022-12-15T15:50:32.398Z,19.63
2022-12-15T15:52:34.577Z,18.27
2022-12-15T15:54:36.410Z,17.43
2022-12-15T15:56:39.268Z,19.97
2022-12-15T15:58:43.030Z,27.63
2022-12-15T16:00:44.797Z,20.47
2022-12-15T16:02:46.742Z,21.63
2022-12-15T16:04:48.725Z,19.83
2022-12-15T16:06:51.947Z,25.63
2022-12-15T16:08:54.183Z,20.97
2022-12-15T16:10:55.979Z,20.07
2022-12-15T16:13:01.219Z,22.13
2022-12-15T16:15:02.984Z,23.67
2022-12-15T16:17:06.388Z,19.20
2022-12-15T16:19:08.918Z,24.07
2022-12-15T16:21:14.123Z,32.87
2022-12-15T16:23:26.783Z,25.60
2022-12-15T16:25:46.660Z,20.47
2022-12-15T16:27:51.982Z,17.73
2022-12-15T16:29:53.702Z,19.50
2022-12-15T16:31:56.131Z,24.37
2022-12-15T16:33:58.575Z,23.63
2022-12-15T16:36:00.601Z,19.63
2022-12-15T16:38:29.307Z,20.43
2022-12-15T16:40:31.802Z,18.40
2022-12-15T16:42:33.572Z,20.00
2022-12-15T16:44:37.928Z,30.03
2022-12-15T16:46:39.860Z,17.60
2022-12-15T16:48:42.702Z,21.37
2022-12-15T16:50:49.387Z,22.03
2022-12-15T16:52:56.947Z,25.33
2022-12-15T16:54:58.770Z,23.67
2022-12-15T16:57:00.640Z,25.70
2022-12-15T16:59:31.327Z,19.80
2022-12-15T17:01:24.247Z,30.33
2022-12-15T17:03:29.261Z,29.47
2022-12-15T17:05:36.291Z,25.40
2022-12-15T17:07:39.021Z,25.20
2022-12-15T17:09:40.841Z,21.63
2022-12-15T17:11:42.632Z,22.63
2022-12-15T17:13:47.960Z,28.67
2022-12-15T17:15:49.724Z,18.93
2022-12-15T17:17:52.443Z,34.27
2022-12-15T17:22:18.586Z,18.07
2022-12-15T17:24:21.225Z,21.50
2022-12-15T17:26:35.769Z,27.33
2022-12-15T17:28:37.507Z,18.83
2022-12-15T17:30:39.294Z,19.57
2022-12-15T17:32:41.201Z,24.13
2022-12-15T17:34:42.953Z,19.80
2022-12-15T17:36:44.749Z,23.00
2022-12-15T17:38:46.703Z,30.70
2022-12-15T17:40:49.693Z,28.90
2022-12-15T17:42:51.498Z,33.30
2022-12-15T17:44:53.283Z,22.90
2022-12-15T17:46:55.379Z,17.93
2022-12-15T17:48:57.181Z,19.43
2022-12-15T17:50:59.060Z,30.90
2022-12-15T17:53:01.279Z,22.70
2022-12-15T17:55:17.000Z,20.23
2022-12-15T17:57:19.105Z,27.93
2022-12-15T17:59:21.317Z,24.47
2022-12-15T18:01:23.564Z,24.60
2022-12-15T18:03:25.457Z,20.27
2022-12-15T18:05:28.643Z,24.50
2022-12-15T18:07:30.300Z,23.50
2022-12-15T18:09:32.099Z,25.27
2022-12-15T18:11:33.886Z,23.43
2022-12-15T18:13:35.894Z,22.20
2022-12-15T18:15:37.695Z,28.63
2022-12-15T18:17:39.582Z,17.53
2022-12-15T18:19:41.320Z,20.83
2022-12-15T18:21:43.143Z,20.30
2022-12-15T18:23:46.196Z,24.77
2022-12-15T18:25:48.907Z,23.80
2022-12-15T18:27:51.281Z,18.87
2022-12-15T18:29:53.506Z,21.17
2022-12-15T18:31:55.788Z,16.73
2022-12-15T18:34:04.355Z,19.77
2022-12-15T18:36:06.860Z,18.87
2022-12-15T18:38:20.716Z,24.23
2022-12-15T18:40:26.458Z,23.57
2022-12-15T18:42:28.246Z,23.90
2022-12-15T18:44:31.568Z,24.57
2022-12-15T18:46:33.375Z,18.43
2022-12-15T18:48:37.906Z,24.13
2022-12-15T18:50:40.096Z,15.93
2022-12-15T18:52:42.206Z,17.90
2022-12-15T18:54:44.489Z,19.93
2022-12-15T18:56:46.210Z,22.40
2022-12-15T18:58:47.984Z,14.60
2022-12-15T19:00:49.865Z,22.23
2022-12-15T19:02:53.709Z,16.97
2022-12-15T19:04:55.532Z,18.47
2022-12-15T19:06:57.242Z,19.73
2022-12-15T19:08:58.965Z,23.70
2022-12-15T19:11:11.190Z,21.33
2022-12-15T19:13:14.203Z,16.60
2022-12-15T19:15:17.509Z,17.50
2022-12-15T19:17:42.012Z,19.13
2022-12-15T19:20:02.078Z,20.80
2022-12-15T19:22:28.208Z,15.37
2022-12-15T19:24:51.607Z,21.07
2022-12-15T19:26:53.375Z,17.77
2022-12-15T19:28:55.385Z,16.73
2022-12-15T19:30:57.195Z,19.10
2022-12-15T19:32:59.216Z,16.97
2022-12-15T19:35:01.043Z,18.83
2022-12-15T19:37:04.362Z,16.17
2022-12-15T19:39:07.002Z,23.03
2022-12-15T19:41:13.417Z,17.33
2022-12-15T19:43:17.407Z,18.80
2022-12-15T19:45:25.013Z,20.53
2022-12-15T19:47:26.813Z,27.30
2022-12-15T19:49:28.552Z,21.37
2022-12-15T19:51:30.386Z,18.43
2022-12-15T19:53:32.533Z,16.37
2022-12-15T19:55:35.854Z,18.10
2022-12-15T19:57:37.521Z,24.87
2022-12-15T19:59:39.354Z,18.13
2022-12-15T20:01:41.175Z,22.03
2022-12-15T20:03:45.136Z,17.63
2022-12-15T20:05:46.999Z,19.27
2022-12-15T20:07:52.995Z,23.97
2022-12-15T20:09:56.173Z,15.90
2022-12-15T20:11:57.925Z,19.27
2022-12-15T20:14:01.787Z,29.17
2022-12-15T20:16:03.605Z,24.60
2022-12-15T20:18:05.665Z,29.23
2022-12-15T20:20:08.140Z,38.53
2022-12-15T20:22:17.709Z,28.00
2022-12-15T20:24:19.961Z,32.67
2022-12-15T20:26:23.093Z,34.17
2022-12-15T20:28:27.336Z,35.63
2022-12-15T20:30:32.830Z,23.43
2022-12-15T20:32:38.357Z,26.00
2022-12-15T20:34:40.396Z,33.40
2022-12-15T20:36:42.612Z,27.97
2022-12-15T20:38:45.295Z,20.97
2022-12-15T20:40:47.298Z,23.93
2022-12-15T20:42:49.625Z,21.67
2022-12-15T20:44:51.656Z,26.40
2022-12-15T20:46:55.883Z,34.17
2022-12-15T20:48:57.556Z,30.67
2022-12-15T20:51:01.901Z,39.43
2022-12-15T20:53:14.557Z,45.90
2022-12-15T20:55:16.334Z,29.93
2022-12-15T20:57:18.169Z,34.97
2022-12-15T20:59:19.902Z,25.77
2022-12-15T21:01:28.227Z,51.93
2022-12-15T21:03:34.097Z,52.03
2022-12-15T21:05:36.072Z,43.77
2022-12-15T21:07:37.809Z,40.60
2022-12-15T21:09:39.981Z,43.37
2022-12-15T21:11:42.080Z,37.93
2022-12-15T21:14:17.287Z,29.07
2022-12-15T21:16:26.480Z,30.00
2022-12-15T21:21:16.312Z,42.70
2022-12-15T21:23:20.645Z,38.70
2022-12-15T21:25:26.866Z,45.13
2022-12-15T21:27:28.804Z,40.50
2022-12-15T21:29:36.458Z,30.43
2022-12-15T21:31:38.312Z,30.57
2022-12-15T21:33:40.167Z,41.23
2022-12-15T21:35:42.626Z,39.27
2022-12-15T21:37:48.476Z,25.30
2022-12-15T21:39:50.534Z,40.90
2022-12-15T21:41:52.443Z,85.87
2022-12-15T21:43:56.846Z,84.37
2022-12-15T21:46:00.713Z,83.70
2022-12-15T21:48:21.103Z,35.93
2022-12-15T21:50:23.023Z,25.90
2022-12-15T21:52:25.890Z,30.80
2022-12-15T21:54:32.283Z,20.93
2022-12-15T21:56:34.038Z,24.03
2022-12-15T21:58:35.963Z,27.70
2022-12-15T22:00:40.954Z,22.93
2022-12-15T22:02:48.643Z,53.63
2022-12-15T22:04:51.850Z,52.33
2022-12-15T22:06:53.594Z,43.63
2022-12-15T22:08:58.700Z,47.80
2022-12-15T22:11:00.479Z,40.70
2022-12-15T22:13:03.217Z,28.93
2022-12-15T22:15:13.970Z,26.50
2022-12-15T22:17:21.030Z,25.40
2022-12-15T22:19:23.508Z,46.17
2022-12-15T22:21:25.644Z,41.43
2022-12-15T22:23:27.355Z,42.80
2022-12-15T22:25:29.132Z,43.30
2022-12-15T22:27:32.360Z,39.27
2022-12-15T22:29:34.422Z,41.33
2022-12-15T22:31:36.268Z,36.27
2022-12-15T22:33:38.174Z,30.17
2022-12-15T22:35:39.990Z,25.87
2022-12-15T22:37:42.879Z,26.07
2022-12-15T22:39:44.632Z,27.37
2022-12-15T22:41:48.444Z,24.17
2022-12-15T22:43:55.135Z,16.40
2022-12-15T22:45:57.317Z,31.37
2022-12-15T22:47:59.117Z,60.83
2022-12-15T22:50:01.182Z,51.33
2022-12-15T22:52:03.905Z,43.37
2022-12-15T22:54:19.107Z,33.63
2022-12-15T22:56:34.707Z,29.13
2022-12-15T22:58:43.534Z,20.93
2022-12-15T23:00:45.303Z,18.23
2022-12-15T23:02:47.541Z,19.70
2022-12-15T23:04:49.348Z,23.33
2022-12-15T23:06:53.380Z,17.60
2022-12-15T23:08:56.711Z,19.77
2022-12-15T23:11:18.490Z,19.70
2022-12-15T23:13:20.367Z,21.00
2022-12-15T23:15:45.131Z,20.03
2022-12-15T23:17:46.814Z,19.07
2022-12-15T23:19:48.566Z,24.00
2022-12-15T23:21:51.050Z,15.87
2022-12-15T23:23:53.953Z,14.37
2022-12-15T23:25:56.585Z,20.13
2022-12-15T23:27:58.270Z,19.03
2022-12-15T23:29:59.949Z,14.63
2022-12-15T23:32:01.676Z,17.07
2022-12-15T23:34:03.374Z,17.30
2022-12-15T23:36:06.269Z,22.73
2022-12-15T23:38:07.943Z,16.13
2022-12-15T23:40:10.922Z,14.80
2022-12-15T23:42:12.883Z,18.43
2022-12-15T23:44:14.517Z,15.07
2022-12-15T23:46:16.392Z,16.67
2022-12-15T23:48:18.165Z,15.93
2022-12-15T23:50:19.864Z,13.87
2022-12-15T23:52:21.642Z,15.70
2022-12-15T23:54:23.505Z,18.60
2022-12-15T23:56:25.637Z,18.37
2022-12-15T23:58:27.326Z,22.80
